• Join FlightAware (Why Join?)
  • Login
  • US Flag 
04:39AM EDT


 

Airport Tracker/Info


-or-


 

Live Flight TrackerFlight Track Log ✈ CJT574 ✈ 11-Jul-2013 ✈ CYWG - CYHM

Flight Track Log - Related Links

Times and Time Zones

All times are in EDT time to prevent confusion due to time zone crossing. See the CJT574 flight status page for this flight to view local times or setup timezone preferences in your user account.

Time Position Orientation Groundspeed Altitude Reporting Facility
EDT Latitude Longitude Course Direction KTS MPH feet Rate Location/Type
02:05AM 49.9333 -97.3000 316° Northwest 200 230 2,800  Level Winnipeg Center
02:06AM 49.9000 -97.3833 238° Southwest 260 299 3,800 1,800 Climbing Winnipeg Center
02:07AM 49.8500 -97.3333 147° Southeast 290 334 6,400 2,280 Climbing Winnipeg Center
02:08AM 49.8167 -97.2000 111° Southeast 300 345 8,400 1,920 Climbing Winnipeg Center
02:09AM 49.7833 -97.0667 111° Southeast 310 357 10,300 1,440 Climbing Winnipeg Center
02:10AM 49.7500 -96.9333 111° Southeast 350 403 11,300 1,260 Climbing Winnipeg Center
02:11AM 49.7000 -96.7833 117° Southeast 380 437 12,900 1,500 Climbing Winnipeg Center
02:12AM 49.6500 -96.6333 117° Southeast 390 449 14,300 1,500 Climbing Winnipeg Center
02:13AM 49.6167 -96.4833 109° East 410 472 16,000 1,500 Climbing Winnipeg Center
02:14AM 49.5667 -96.3167 115° Southeast 410 472 17,400 1,500 Climbing Winnipeg Center
02:15AM 49.5000 -96.1500 122° Southeast 420 483 19,000 1,500 Climbing Winnipeg Center
02:16AM 49.4667 -95.9833 107° East 430 495 20,400 1,320 Climbing Winnipeg Center
02:17AM 49.4167 -95.7833 111° Southeast 440 506 21,700 1,200 Climbing Winnipeg Center
02:18AM 49.3667 -95.6333 117° Southeast 450 518 22,800 1,200 Climbing Winnipeg Center
02:19AM 49.3167 -95.4500 113° Southeast 450 518 24,100 1,200 Climbing Winnipeg Center
02:20AM 49.2667 -95.2667 113° Southeast 470 541 25,200 1,080 Climbing Winnipeg Center
02:21AM 49.2167 -95.1000 115° Southeast 470 541 26,300 1,080 Climbing Winnipeg Center
02:22AM 49.1500 -94.9000 117° Southeast 480 552 27,400 960 Climbing Winnipeg Center
02:23AM 49.1000 -94.7167 113° Southeast 490 564 28,300 1,080 Climbing Winnipeg Center
02:24AM 49.0333 -94.5167 117° Southeast 490 564 29,600 1,200 Climbing Winnipeg Center
02:25AM 48.9667 -94.3500 121° Southeast 490 564 30,800 960 Climbing Winnipeg Center
02:26AM 48.9000 -94.1667 119° Southeast 490 564 31,600 900 Climbing Winnipeg Center
02:27AM 48.8167 -93.9667 122° Southeast 490 564 32,600 660 Climbing Winnipeg Center
02:28AM 48.7500 -93.8000 121° Southeast 500 575 33,000 180 Climbing Winnipeg Center
02:29AM 48.6667 -93.6000 122° Southeast 510 587 33,000  Level Winnipeg Center
02:30AM 48.6167 -93.4333 114° Southeast 510 587 33,000  Level Winnipeg Center
02:31AM 48.6058 -93.3478 101° East 515 593 33,000  Level Minneapolis Center
02:32AM 48.5450 -93.1550 115° Southeast 512 589 33,000  Level Minneapolis Center
02:33AM 48.4858 -92.9636 115° Southeast 507 583 33,000  Level Minneapolis Center
02:34AM 48.4256 -92.7731 115° Southeast 505 581 33,000  Level Minneapolis Center
02:35AM 48.3656 -92.5847 116° Southeast 503 579 33,000  Level Minneapolis Center
02:36AM 48.3031 -92.3922 116° Southeast 501 577 33,000  Level Minneapolis Center
02:37AM 48.2428 -92.2072 116° Southeast 502 578 33,000  Level Minneapolis Center
02:38AM 48.1819 -92.0194 116° Southeast 502 578 33,000  Level Minneapolis Center
02:39AM 48.1211 -91.8344 116° Southeast 500 575 33,000  Level Minneapolis Center
02:40AM 48.0594 -91.6511 117° Southeast 497 572 33,000  Level Minneapolis Center
02:41AM 47.9986 -91.4681 116° Southeast 495 570 33,000  Level Minneapolis Center
02:42AM 47.9369 -91.2853 117° Southeast 494 568 33,000  Level Minneapolis Center
02:43AM 47.8758 -91.1061 117° Southeast 491 565 33,000  Level Minneapolis Center
02:44AM 47.8142 -90.9258 117° Southeast 490 564 33,000  Level Minneapolis Center
02:45AM 47.7533 -90.7489 117° Southeast 487 560 33,000  Level Minneapolis Center
02:46AM 47.6931 -90.5714 117° Southeast 485 558 33,000  Level Minneapolis Center
02:47AM 47.6311 -90.3944 117° Southeast 484 557 33,000  Level Minneapolis Center
02:48AM 47.5683 -90.2192 118° Southeast 480 552 33,000  Level Minneapolis Center
02:49AM 47.5044 -90.0456 119° Southeast 479 551 33,000  Level Minneapolis Center
02:50AM 47.4417 -89.8667 117° Southeast 484 557 33,000  Level Minneapolis Center
02:51AM 47.3794 -89.6883 117° Southeast 487 560 33,000  Level Minneapolis Center
02:52AM 47.3158 -89.5131 118° Southeast 485 558 33,000  Level Minneapolis Center
02:53AM 47.2514 -89.3347 118° Southeast 490 564 33,000  Level Minneapolis Center
02:54AM 47.1858 -89.1583 119° Southeast 491 565 33,000  Level Minneapolis Center
02:55AM 47.1206 -88.9778 118° Southeast 496 571 33,000  Level Minneapolis Center
02:56AM 47.0542 -88.7981 118° Southeast 498 573 33,000  Level Minneapolis Center
02:57AM 46.9864 -88.6178 119° Southeast 502 578 33,000  Level Minneapolis Center
02:58AM 46.9189 -88.4381 119° Southeast 502 578 33,000  Level Minneapolis Center
02:59AM 46.8503 -88.2569 119° Southeast 506 582 33,000  Level Minneapolis Center
03:00AM 46.7817 -88.0767 119° Southeast 507 583 33,000  Level Minneapolis Center
03:01AM 46.7122 -87.8958 119° Southeast 509 586 33,000  Level Minneapolis Center
03:02AM 46.6419 -87.7147 119° Southeast 512 589 33,000  Level Minneapolis Center
03:03AM 46.5769 -87.5461 119° Southeast 514 592 33,000  Level Minneapolis Center
03:04AM 46.5067 -87.3658 119° Southeast 515 593 33,000  Level Minneapolis Center
03:05AM 46.4350 -87.1842 120° Southeast 519 597 33,000  Level Minneapolis Center
03:06AM 46.3486 -86.9683 120° Southeast 516 594 33,000  Level Minneapolis Center
03:07AM 46.2775 -86.7897 120° Southeast 514 592 33,000  Level Minneapolis Center
03:08AM 46.2047 -86.6081 120° Southeast 520 598 33,000  Level Minneapolis Center
03:09AM 46.1464 -86.4636 120° Southeast 521 600 33,000  Level Minneapolis Center
03:10AM 46.0586 -86.2467 120° Southeast 521 600 33,000  Level Minneapolis Center
03:11AM 45.9989 -86.1019 121° Southeast 525 604 33,000  Level Minneapolis Center
03:12AM 45.9100 -85.8853 120° Southeast 524 603 33,000  Level Minneapolis Center
03:13AM 45.8344 -85.7039 121° Southeast 526 605 33,000  Level Minneapolis Center
03:14AM 45.7581 -85.5233 121° Southeast 528 608 33,000  Level Minneapolis Center
03:15AM 45.6825 -85.3411 121° Southeast 531 611 33,000  Level Minneapolis Center
03:16AM 45.6056 -85.1619 121° Southeast 529 609 33,000  Level Minneapolis Center
03:17AM 45.5294 -84.9814 121° Southeast 530 610 33,000  Level Minneapolis Center
03:18AM 45.4519 -84.8000 121° Southeast 532 612 33,000  Level Minneapolis Center
03:19AM 45.3733 -84.6203 122° Southeast 533 613 33,000  Level Minneapolis Center
03:20AM 45.2958 -84.4417 122° Southeast 532 612 33,000  Level Minneapolis Center
03:21AM 45.2181 -84.2625 122° Southeast 532 612 33,000  Level Minneapolis Center
03:22AM 45.1406 -84.0858 122° Southeast 531 611 33,000  Level Minneapolis Center
03:23AM 45.0611 -83.9092 122° Southeast 530 610 33,000  Level Minneapolis Center
03:24AM 44.9831 -83.7314 122° Southeast 532 612 33,000  Level Minneapolis Center
03:25AM 44.9056 -83.5558 122° Southeast 530 610 33,000  Level Minneapolis Center
03:26AM 44.8267 -83.3808 122° Southeast 530 610 33,000  Level Minneapolis Center
03:27AM 44.7461 -83.2056 123° Southeast 531 611 33,000  Level Minneapolis Center
03:28AM 44.6694 -83.0328 122° Southeast 527 606 33,000  Level Minneapolis Center
03:29AM 44.5897 -82.8622 123° Southeast 524 603 33,000  Level Minneapolis Center
03:30AM 44.5114 -82.6922 123° Southeast 522 601 33,000  Level Minneapolis Center
03:31AM 44.4336 -82.5231 123° Southeast 519 597 33,000  Level Minneapolis Center
03:32AM 44.3667 -82.3833 124° Southeast 520 598 33,000  Level Toronto Center
03:33AM 44.2833 -82.2333 128° Southeast 520 598 33,000  Level Toronto Center
03:34AM 44.2000 -82.0833 128° Southeast 520 598 33,000  Level Toronto Center
03:35AM 44.1333 -81.9167 119° Southeast 520 598 33,000 -1,020 Level Toronto Center
03:36AM 44.0500 -81.7500 125° Southeast 510 587 31,000 -2,640 Descending Toronto Center
03:37AM 43.9667 -81.5833 125° Southeast 510 587 27,800 -3,000 Descending Toronto Center
03:38AM 43.8833 -81.4333 128° Southeast 500 575 25,000 -3,000 Descending Toronto Center
03:39AM 43.8000 -81.2667 125° Southeast 480 552 21,900 -2,820 Descending Toronto Center
03:40AM 43.7333 -81.1333 125° Southeast 460 529 19,400 -2,400 Descending Toronto Center
03:41AM 43.6667 -81.0000 125° Southeast 440 506 17,100 -2,400 Descending Toronto Center
03:42AM 43.5833 -80.8833 135° Southeast 410 472 14,600 -2,400 Descending Toronto Center
03:43AM 43.5500 -80.7667 111° Southeast 400 460 12,400 -1,740 Descending Toronto Center
03:44AM 43.4833 -80.6167 121° Southeast 370 426 11,200 -1,200 Descending Toronto Center
03:45AM 43.4333 -80.5333 130° Southeast 330 380 10,000 -1,320 Descending Toronto Center
03:46AM 43.3833 -80.4333 125° Southeast 310 357 8,600 -1,500 Descending Toronto Center
03:47AM 43.3333 -80.3500 130° Southeast 300 345 7,100 -1,200 Descending Toronto Center
03:48AM 43.2833 -80.2500 124° Southeast 280 322 6,200 -900 Descending Toronto Center
03:49AM 43.2500 -80.1667 119° Southeast 260 299 5,300 -600 Descending Toronto Center
03:50AM 43.2333 -80.0667 103° East 260 299 5,000 -600 Descending Toronto Center
03:51AM 43.2167 -79.9833 105° East 260 299 4,200 -780 Descending Toronto Center
03:52AM 43.2000 -79.8833 103° East 240 276 3,500 -600 Descending Toronto Center
03:53AM 43.1667 -79.8167 124° Southeast 250 288 3,000 -300 Descending Toronto Center
03:54AM 43.1500 -79.7167 103° East 230 265 3,000  Level Toronto Center
03:55AM 43.1500 -79.6500 90° East 200 230 3,000  Level Toronto Center
03:56AM 43.1167 -79.6833 216° Southwest 190 219 3,000  Level Toronto Center
03:57AM 43.1333 -79.7167 304° West 170 196 3,000 -180 Level Toronto Center
03:58AM 43.1333 -79.8000 270° West 160 184 2,700 -660 Descending Toronto Center
03:59AM 43.1500 -79.8333 304° West 130 150 1,700 -900 Descending Toronto Center
04:00AM 43.1667 -79.8833 295° West 130 150 1,000 -720 Descending Toronto Center